sensor_id;sensor_type;location;lat;lon;timestamp;pressure;altitude;pressure_sealevel;temperature;humidity
41078;BME280;26823;42.662;23.352;2023-02-28T00:01:18;95206.47;;;5.35;100.00
41078;BME280;26823;42.662;23.352;2023-02-28T00:03:44;95236.22;;;5.34;100.00
41078;BME280;26823;42.662;23.352;2023-02-28T00:06:09;95250.66;;;5.33;100.00
41078;BME280;26823;42.662;23.352;2023-02-28T00:08:36;95218.13;;;5.29;100.00
41078;BME280;26823;42.662;23.352;2023-02-28T00:11:07;95237.00;;;5.34;100.00
41078;BME280;26823;42.662;23.352;2023-02-28T00:13:35;95229.56;;;5.36;100.00
41078;BME280;26823;42.662;23.352;2023-02-28T00:16:02;95248.44;;;5.42;100.00
41078;BME280;26823;42.662;23.352;2023-02-28T00:18:28;95232.25;;;5.36;100.00
41078;BME280;26823;42.662;23.352;2023-02-28T00:20:54;95231.28;;;5.54;100.00
41078;BME280;26823;42.662;23.352;2023-02-28T00:23:19;95237.69;;;5.53;100.00
41078;BME280;26823;42.662;23.352;2023-02-28T00:25:44;95241.78;;;5.44;100.00
41078;BME280;26823;42.662;23.352;2023-02-28T00:28:10;95238.28;;;5.55;100.00
41078;BME280;26823;42.662;23.352;2023-02-28T00:30:35;95244.00;;;5.59;100.00
41078;BME280;26823;42.662;23.352;2023-02-28T00:33:01;95265.31;;;5.66;100.00
41078;BME280;26823;42.662;23.352;2023-02-28T00:35:26;95229.88;;;5.64;100.00
41078;BME280;26823;42.662;23.352;2023-02-28T00:37:52;95216.03;;;5.31;100.00
41078;BME280;26823;42.662;23.352;2023-02-28T00:40:17;95261.16;;;5.46;100.00
41078;BME280;26823;42.662;23.352;2023-02-28T00:42:42;95240.50;;;5.47;100.00
41078;BME280;26823;42.662;23.352;2023-02-28T00:45:08;95244.44;;;5.56;100.00
41078;BME280;26823;42.662;23.352;2023-02-28T00:47:34;95231.03;;;5.56;100.00
41078;BME280;26823;42.662;23.352;2023-02-28T00:50:00;95227.66;;;5.61;100.00
41078;BME280;26823;42.662;23.352;2023-02-28T00:52:25;95236.19;;;5.58;100.00
41078;BME280;26823;42.662;23.352;2023-02-28T00:54:51;95234.13;;;5.36;100.00
41078;BME280;26823;42.662;23.352;2023-02-28T00:57:16;95227.69;;;5.37;100.00
41078;BME280;26823;42.662;23.352;2023-02-28T00:59:41;95239.81;;;5.39;100.00
41078;BME280;26823;42.662;23.352;2023-02-28T01:02:07;95242.75;;;5.26;100.00
41078;BME280;26823;42.662;23.352;2023-02-28T01:04:32;95236.09;;;5.29;100.00
41078;BME280;26823;42.662;23.352;2023-02-28T01:06:58;95258.38;;;5.41;100.00
41078;BME280;26823;42.662;23.352;2023-02-28T01:09:23;95231.88;;;5.33;100.00
41078;BME280;26823;42.662;23.352;2023-02-28T01:11:49;95230.47;;;5.42;100.00
41078;BME280;26823;42.662;23.352;2023-02-28T01:14:16;95239.47;;;5.36;100.00
41078;BME280;26823;42.662;23.352;2023-02-28T01:16:42;95235.84;;;5.42;100.00
41078;BME280;26823;42.662;23.352;2023-02-28T01:19:08;95223.94;;;5.38;100.00
41078;BME280;26823;42.662;23.352;2023-02-28T01:21:33;95242.34;;;5.58;100.00
41078;BME280;26823;42.662;23.352;2023-02-28T01:24:00;95221.28;;;5.50;100.00
41078;BME280;26823;42.662;23.352;2023-02-28T01:26:26;95234.41;;;5.63;100.00
41078;BME280;26823;42.662;23.352;2023-02-28T01:28:52;95216.94;;;5.49;100.00
41078;BME280;26823;42.662;23.352;2023-02-28T01:31:19;95236.97;;;5.58;100.00
41078;BME280;26823;42.662;23.352;2023-02-28T01:33:45;95225.66;;;5.56;100.00
41078;BME280;26823;42.662;23.352;2023-02-28T01:36:16;95237.81;;;5.59;100.00
41078;BME280;26823;42.662;23.352;2023-02-28T01:38:44;95234.88;;;5.60;100.00
41078;BME280;26823;42.662;23.352;2023-02-28T01:41:21;95238.72;;;5.64;100.00
41078;BME280;26823;42.662;23.352;2023-02-28T01:46:13;95240.38;;;5.65;100.00
41078;BME280;26823;42.662;23.352;2023-02-28T01:49:03;95233.84;;;5.49;100.00
41078;BME280;26823;42.662;23.352;2023-02-28T01:51:38;95240.50;;;5.47;100.00
41078;BME280;26823;42.662;23.352;2023-02-28T01:54:09;95216.97;;;5.25;100.00
41078;BME280;26823;42.662;23.352;2023-02-28T01:56:46;95246.94;;;5.34;100.00
41078;BME280;26823;42.662;23.352;2023-02-28T01:59:14;95254.88;;;5.29;100.00
41078;BME280;26823;42.662;23.352;2023-02-28T02:01:42;95237.63;;;5.13;100.00
41078;BME280;26823;42.662;23.352;2023-02-28T02:04:08;95232.72;;;4.98;100.00
41078;BME280;26823;42.662;23.352;2023-02-28T02:06:45;95243.09;;;4.94;100.00
41078;BME280;26823;42.662;23.352;2023-02-28T02:09:12;95246.59;;;5.06;100.00
41078;BME280;26823;42.662;23.352;2023-02-28T02:11:40;95232.38;;;4.94;100.00
41078;BME280;26823;42.662;23.352;2023-02-28T02:17:20;95241.00;;;5.20;100.00
41078;BME280;26823;42.662;23.352;2023-02-28T02:22:43;95235.75;;;5.01;100.00
41078;BME280;26823;42.662;23.352;2023-02-28T02:36:31;95237.63;;;5.01;100.00
41078;BME280;26823;42.662;23.352;2023-02-28T02:41:38;95236.56;;;5.14;100.00
41078;BME280;26823;42.662;23.352;2023-02-28T02:46:43;95256.97;;;5.27;100.00
41078;BME280;26823;42.662;23.352;2023-02-28T02:49:14;95255.47;;;5.31;100.00
41078;BME280;26823;42.662;23.352;2023-02-28T02:51:41;95232.03;;;5.26;100.00
41078;BME280;26823;42.662;23.352;2023-02-28T02:56:36;95233.78;;;5.32;100.00
41078;BME280;26823;42.662;23.352;2023-02-28T02:59:08;95253.34;;;5.45;100.00
41078;BME280;26823;42.662;23.352;2023-02-28T03:01:36;95247.19;;;5.32;100.00
41078;BME280;26823;42.662;23.352;2023-02-28T03:04:16;95262.44;;;5.44;100.00
41078;BME280;26823;42.662;23.352;2023-02-28T03:06:43;95270.84;;;5.47;100.00
41078;BME280;26823;42.662;23.352;2023-02-28T03:09:08;95277.03;;;5.48;100.00
41078;BME280;26823;42.662;23.352;2023-02-28T03:11:35;95274.34;;;5.48;100.00
41078;BME280;26823;42.662;23.352;2023-02-28T03:14:23;95279.91;;;5.58;100.00
41078;BME280;26823;42.662;23.352;2023-02-28T03:17:03;95276.31;;;5.52;100.00
41078;BME280;26823;42.662;23.352;2023-02-28T03:22:31;95284.00;;;5.61;100.00
41078;BME280;26823;42.662;23.352;2023-02-28T03:33:05;95297.19;;;5.50;100.00
41078;BME280;26823;42.662;23.352;2023-02-28T03:35:37;95298.00;;;5.51;100.00
41078;BME280;26823;42.662;23.352;2023-02-28T03:38:17;95287.78;;;5.36;100.00
41078;BME280;26823;42.662;23.352;2023-02-28T03:40:49;95284.38;;;5.41;100.00
41078;BME280;26823;42.662;23.352;2023-02-28T03:43:20;95287.03;;;5.41;100.00
41078;BME280;26823;42.662;23.352;2023-02-28T03:45:50;95307.00;;;5.45;100.00
41078;BME280;26823;42.662;23.352;2023-02-28T03:48:21;95305.03;;;5.40;100.00
41078;BME280;26823;42.662;23.352;2023-02-28T03:50:53;95307.00;;;5.45;100.00
41078;BME280;26823;42.662;23.352;2023-02-28T03:58:58;95312.59;;;5.43;100.00
41078;BME280;26823;42.662;23.352;2023-02-28T04:01:30;95314.47;;;5.43;100.00
41078;BME280;26823;42.662;23.352;2023-02-28T04:03:58;95296.03;;;5.22;100.00
41078;BME280;26823;42.662;23.352;2023-02-28T04:06:24;95300.72;;;5.27;100.00
41078;BME280;26823;42.662;23.352;2023-02-28T04:08:50;95300.13;;;5.25;100.00
41078;BME280;26823;42.662;23.352;2023-02-28T04:11:37;95306.88;;;5.28;100.00
41078;BME280;26823;42.662;23.352;2023-02-28T04:14:04;95305.59;;;5.18;100.00
41078;BME280;26823;42.662;23.352;2023-02-28T04:16:31;95315.97;;;5.27;100.00
41078;BME280;26823;42.662;23.352;2023-02-28T04:18:57;95298.25;;;5.26;100.00
41078;BME280;26823;42.662;23.352;2023-02-28T04:21:33;95298.47;;;5.24;100.00
41078;BME280;26823;42.662;23.352;2023-02-28T04:23:59;95293.72;;;5.14;100.00
41078;BME280;26823;42.662;23.352;2023-02-28T04:26:36;95303.16;;;5.17;100.00
41078;BME280;26823;42.662;23.352;2023-02-28T04:29:09;95302.22;;;5.11;100.00
41078;BME280;26823;42.662;23.352;2023-02-28T04:31:36;95304.97;;;4.93;100.00
41078;BME280;26823;42.662;23.352;2023-02-28T04:34:01;95308.94;;;4.90;100.00
41078;BME280;26823;42.662;23.352;2023-02-28T04:36:27;95299.97;;;4.96;100.00
41078;BME280;26823;42.662;23.352;2023-02-28T04:38:53;95308.13;;;5.01;100.00
41078;BME280;26823;42.662;23.352;2023-02-28T04:41:19;95320.84;;;5.06;100.00
41078;BME280;26823;42.662;23.352;2023-02-28T04:43:45;95314.09;;;5.03;100.00
41078;BME280;26823;42.662;23.352;2023-02-28T04:46:10;95321.47;;;5.08;100.00
41078;BME280;26823;42.662;23.352;2023-02-28T04:48:38;95337.06;;;5.11;100.00
41078;BME280;26823;42.662;23.352;2023-02-28T04:51:06;95328.41;;;4.97;100.00
41078;BME280;26823;42.662;23.352;2023-02-28T04:53:32;95327.03;;;5.06;100.00
41078;BME280;26823;42.662;23.352;2023-02-28T04:55:58;95317.09;;;4.95;100.00
41078;BME280;26823;42.662;23.352;2023-02-28T04:58:24;95320.97;;;4.99;100.00
41078;BME280;26823;42.662;23.352;2023-02-28T05:00:50;95332.50;;;5.12;100.00
41078;BME280;26823;42.662;23.352;2023-02-28T05:03:16;95323.16;;;4.90;100.00
41078;BME280;26823;42.662;23.352;2023-02-28T05:05:41;95326.41;;;4.93;100.00
41078;BME280;26823;42.662;23.352;2023-02-28T05:08:06;95333.66;;;5.04;100.00
41078;BME280;26823;42.662;23.352;2023-02-28T05:10:32;95336.16;;;5.05;100.00
41078;BME280;26823;42.662;23.352;2023-02-28T05:12:58;95323.53;;;4.94;100.00
41078;BME280;26823;42.662;23.352;2023-02-28T05:15:23;95321.53;;;5.01;100.00
41078;BME280;26823;42.662;23.352;2023-02-28T05:17:49;95331.09;;;5.09;100.00
41078;BME280;26823;42.662;23.352;2023-02-28T05:20:15;95333.78;;;5.09;100.00
41078;BME280;26823;42.662;23.352;2023-02-28T05:22:41;95343.50;;;5.22;100.00
41078;BME280;26823;42.662;23.352;2023-02-28T05:25:12;95337.66;;;5.13;100.00
41078;BME280;26823;42.662;23.352;2023-02-28T05:27:38;95341.84;;;5.09;100.00
41078;BME280;26823;42.662;23.352;2023-02-28T05:30:05;95339.88;;;5.04;100.00
41078;BME280;26823;42.662;23.352;2023-02-28T05:32:31;95327.63;;;4.97;100.00
41078;BME280;26823;42.662;23.352;2023-02-28T05:34:57;95346.88;;;5.05;100.00
41078;BME280;26823;42.662;23.352;2023-02-28T05:37:22;95359.81;;;5.09;100.00
41078;BME280;26823;42.662;23.352;2023-02-28T05:39:47;95361.31;;;5.04;100.00
41078;BME280;26823;42.662;23.352;2023-02-28T05:42:13;95360.97;;;5.01;100.00
41078;BME280;26823;42.662;23.352;2023-02-28T05:44:38;95357.47;;;5.00;100.00
41078;BME280;26823;42.662;23.352;2023-02-28T05:47:04;95367.72;;;5.03;100.00
41078;BME280;26823;42.662;23.352;2023-02-28T05:49:29;95364.91;;;4.98;100.00
41078;BME280;26823;42.662;23.352;2023-02-28T05:51:54;95369.72;;;5.08;100.00
41078;BME280;26823;42.662;23.352;2023-02-28T05:54:20;95366.69;;;5.04;100.00
41078;BME280;26823;42.662;23.352;2023-02-28T05:56:45;95380.69;;;5.18;100.00
41078;BME280;26823;42.662;23.352;2023-02-28T05:59:12;95377.06;;;5.13;100.00
41078;BME280;26823;42.662;23.352;2023-02-28T06:01:43;95381.06;;;5.22;100.00
41078;BME280;26823;42.662;23.352;2023-02-28T06:04:20;95363.56;;;5.19;100.00
41078;BME280;26823;42.662;23.352;2023-02-28T06:06:46;95379.91;;;5.30;100.00
41078;BME280;26823;42.662;23.352;2023-02-28T06:09:13;95360.66;;;5.21;100.00
41078;BME280;26823;42.662;23.352;2023-02-28T06:11:39;95347.00;;;5.11;100.00
41078;BME280;26823;42.662;23.352;2023-02-28T06:14:05;95381.97;;;5.28;100.00
41078;BME280;26823;42.662;23.352;2023-02-28T06:16:32;95378.50;;;5.27;100.00
41078;BME280;26823;42.662;23.352;2023-02-28T06:18:59;95362.72;;;5.19;100.00
41078;BME280;26823;42.662;23.352;2023-02-28T06:21:25;95358.88;;;5.15;100.00
41078;BME280;26823;42.662;23.352;2023-02-28T06:23:52;95357.97;;;5.21;100.00
41078;BME280;26823;42.662;23.352;2023-02-28T06:26:18;95356.31;;;5.20;100.00
41078;BME280;26823;42.662;23.352;2023-02-28T06:28:43;95371.97;;;5.35;100.00
41078;BME280;26823;42.662;23.352;2023-02-28T06:31:11;95361.13;;;5.30;100.00
41078;BME280;26823;42.662;23.352;2023-02-28T06:33:37;95387.03;;;5.48;100.00
41078;BME280;26823;42.662;23.352;2023-02-28T06:36:04;95380.72;;;5.42;100.00
41078;BME280;26823;42.662;23.352;2023-02-28T06:38:31;95379.91;;;5.53;100.00
41078;BME280;26823;42.662;23.352;2023-02-28T06:40:57;95388.78;;;5.54;100.00
41078;BME280;26823;42.662;23.352;2023-02-28T06:43:24;95377.91;;;5.25;100.00
41078;BME280;26823;42.662;23.352;2023-02-28T06:45:57;95398.31;;;5.38;100.00
41078;BME280;26823;42.662;23.352;2023-02-28T06:48:23;95390.75;;;5.47;100.00
41078;BME280;26823;42.662;23.352;2023-02-28T06:50:49;95396.00;;;5.53;100.00
41078;BME280;26823;42.662;23.352;2023-02-28T06:53:15;95399.53;;;5.54;100.00
41078;BME280;26823;42.662;23.352;2023-02-28T06:55:40;95388.78;;;5.54;100.00
41078;BME280;26823;42.662;23.352;2023-02-28T06:58:06;95387.25;;;5.58;100.00
41078;BME280;26823;42.662;23.352;2023-02-28T07:00:43;95387.97;;;5.65;100.00
41078;BME280;26823;42.662;23.352;2023-02-28T07:03:10;95399.88;;;5.69;100.00
41078;BME280;26823;42.662;23.352;2023-02-28T07:05:36;95395.31;;;5.70;100.00
41078;BME280;26823;42.662;23.352;2023-02-28T07:08:03;95404.19;;;5.70;100.00
41078;BME280;26823;42.662;23.352;2023-02-28T07:10:29;95393.31;;;5.77;100.00
41078;BME280;26823;42.662;23.352;2023-02-28T07:12:54;95387.72;;;5.79;100.00
41078;BME280;26823;42.662;23.352;2023-02-28T07:15:20;95383.75;;;5.81;100.00
41078;BME280;26823;42.662;23.352;2023-02-28T07:17:45;95394.63;;;5.86;100.00
41078;BME280;26823;42.662;23.352;2023-02-28T07:20:11;95383.75;;;5.81;100.00
41078;BME280;26823;42.662;23.352;2023-02-28T07:22:37;95354.38;;;5.63;100.00
41078;BME280;26823;42.662;23.352;2023-02-28T07:25:04;95398.00;;;5.94;100.00
41078;BME280;26823;42.662;23.352;2023-02-28T07:27:29;95400.44;;;5.95;100.00
41078;BME280;26823;42.662;23.352;2023-02-28T07:29:55;95390.78;;;5.94;100.00
41078;BME280;26823;42.662;23.352;2023-02-28T07:32:20;95391.34;;;5.96;100.00
41078;BME280;26823;42.662;23.352;2023-02-28T07:34:46;95386.09;;;5.90;100.00
41078;BME280;26823;42.662;23.352;2023-02-28T07:37:11;95383.41;;;6.01;100.00
41078;BME280;26823;42.662;23.352;2023-02-28T07:39:36;95380.94;;;6.12;100.00
41078;BME280;26823;42.662;23.352;2023-02-28T07:42:06;95402.41;;;6.35;100.00
41078;BME280;26823;42.662;23.352;2023-02-28T07:44:34;95400.09;;;6.27;100.00
41078;BME280;26823;42.662;23.352;2023-02-28T07:47:00;95395.41;;;6.23;100.00
41078;BME280;26823;42.662;23.352;2023-02-28T07:49:26;95383.53;;;6.18;100.00
41078;BME280;26823;42.662;23.352;2023-02-28T07:51:51;95367.84;;;6.27;100.00
41078;BME280;26823;42.662;23.352;2023-02-28T07:54:16;95393.81;;;6.50;100.00
41078;BME280;26823;42.662;23.352;2023-02-28T07:56:42;95391.84;;;6.58;100.00
41078;BME280;26823;42.662;23.352;2023-02-28T07:59:07;95361.69;;;6.56;100.00
41078;BME280;26823;42.662;23.352;2023-02-28T08:01:32;95386.59;;;6.80;100.00
41078;BME280;26823;42.662;23.352;2023-02-28T08:03:58;95363.59;;;6.72;100.00
41078;BME280;26823;42.662;23.352;2023-02-28T08:06:24;95386.78;;;6.90;100.00
41078;BME280;26823;42.662;23.352;2023-02-28T08:08:52;95394.81;;;7.02;100.00
41078;BME280;26823;42.662;23.352;2023-02-28T08:11:18;95392.75;;;7.09;99.64
41078;BME280;26823;42.662;23.352;2023-02-28T08:13:44;95391.47;;;7.12;99.50
41078;BME280;26823;42.662;23.352;2023-02-28T08:16:10;95386.50;;;7.21;99.77
41078;BME280;26823;42.662;23.352;2023-02-28T08:18:36;95401.44;;;7.28;99.76
41078;BME280;26823;42.662;23.352;2023-02-28T08:21:09;95401.91;;;7.42;99.43
41078;BME280;26823;42.662;23.352;2023-02-28T08:23:35;95395.81;;;7.47;99.61
41078;BME280;26823;42.662;23.352;2023-02-28T08:26:01;95390.84;;;7.56;100.00
41078;BME280;26823;42.662;23.352;2023-02-28T08:28:27;95384.25;;;7.46;100.00
41078;BME280;26823;42.662;23.352;2023-02-28T08:30:52;95382.13;;;7.65;100.00
41078;BME280;26823;42.662;23.352;2023-02-28T08:33:18;95393.44;;;7.84;100.00
41078;BME280;26823;42.662;23.352;2023-02-28T08:35:44;95402.25;;;7.97;99.61
41078;BME280;26823;42.662;23.352;2023-02-28T08:38:09;95377.41;;;7.95;98.39
41078;BME280;26823;42.662;23.352;2023-02-28T08:40:35;95375.75;;;8.11;98.26
41078;BME280;26823;42.662;23.352;2023-02-28T08:43:00;95374.50;;;8.19;98.92
41078;BME280;26823;42.662;23.352;2023-02-28T08:45:26;95377.66;;;8.32;98.34
41078;BME280;26823;42.662;23.352;2023-02-28T08:47:51;95387.84;;;8.47;98.88
41078;BME280;26823;42.662;23.352;2023-02-28T08:50:17;95401.19;;;8.59;97.66
41078;BME280;26823;42.662;23.352;2023-02-28T08:52:43;95401.25;;;8.64;97.16
41078;BME280;26823;42.662;23.352;2023-02-28T08:55:09;95364.34;;;8.26;98.43
41078;BME280;26823;42.662;23.352;2023-02-28T08:57:35;95401.78;;;8.44;98.12
41078;BME280;26823;42.662;23.352;2023-02-28T09:00:00;95405.47;;;8.55;97.64
41078;BME280;26823;42.662;23.352;2023-02-28T09:02:30;95378.94;;;8.47;97.44
41078;BME280;26823;42.662;23.352;2023-02-28T09:04:56;95360.53;;;8.44;97.73
41078;BME280;26823;42.662;23.352;2023-02-28T09:07:22;95378.94;;;8.69;96.40
41078;BME280;26823;42.662;23.352;2023-02-28T09:09:47;95367.81;;;8.65;96.03
41078;BME280;26823;42.662;23.352;2023-02-28T09:12:23;95392.09;;;8.93;96.38
41078;BME280;26823;42.662;23.352;2023-02-28T09:14:49;95406.91;;;8.90;97.02
41078;BME280;26823;42.662;23.352;2023-02-28T09:17:14;95394.16;;;8.58;96.51
41078;BME280;26823;42.662;23.352;2023-02-28T09:19:40;95379.66;;;8.42;96.93
41078;BME280;26823;42.662;23.352;2023-02-28T09:22:05;95369.50;;;8.27;97.42
41078;BME280;26823;42.662;23.352;2023-02-28T09:24:31;95378.81;;;8.59;97.20
41078;BME280;26823;42.662;23.352;2023-02-28T09:26:57;95393.69;;;8.61;96.26
41078;BME280;26823;42.662;23.352;2023-02-28T09:29:22;95390.31;;;8.76;95.91
41078;BME280;26823;42.662;23.352;2023-02-28T09:31:48;95393.19;;;8.92;95.53
41078;BME280;26823;42.662;23.352;2023-02-28T09:34:13;95379.72;;;8.92;95.26
41078;BME280;26823;42.662;23.352;2023-02-28T09:36:39;95386.91;;;9.08;94.82
41078;BME280;26823;42.662;23.352;2023-02-28T09:39:04;95366.34;;;8.80;93.07
41078;BME280;26823;42.662;23.352;2023-02-28T09:41:39;95392.47;;;9.02;93.26
41078;BME280;26823;42.662;23.352;2023-02-28T09:44:36;95390.97;;;9.11;93.72
41078;BME280;26823;42.662;23.352;2023-02-28T09:47:08;95381.84;;;9.17;93.02
41078;BME280;26823;42.662;23.352;2023-02-28T09:49:40;95374.78;;;9.11;92.33
41078;BME280;26823;42.662;23.352;2023-02-28T09:52:15;95365.88;;;9.16;91.46
41078;BME280;26823;42.662;23.352;2023-02-28T09:54:42;95377.59;;;9.26;91.19
41078;BME280;26823;42.662;23.352;2023-02-28T10:02:51;95377.47;;;9.76;89.49
41078;BME280;26823;42.662;23.352;2023-02-28T10:05:23;95371.53;;;9.79;87.90
41078;BME280;26823;42.662;23.352;2023-02-28T10:08:02;95377.75;;;9.79;87.62
41078;BME280;26823;42.662;23.352;2023-02-28T10:10:38;95372.63;;;9.78;87.31
41078;BME280;26823;42.662;23.352;2023-02-28T10:13:07;95371.38;;;9.96;87.17
41078;BME280;26823;42.662;23.352;2023-02-28T10:15:37;95360.22;;;9.82;86.88
41078;BME280;26823;42.662;23.352;2023-02-28T10:18:04;95372.34;;;10.22;86.31
41078;BME280;26823;42.662;23.352;2023-02-28T10:20:37;95352.72;;;9.94;84.61
41078;BME280;26823;42.662;23.352;2023-02-28T10:23:36;95335.97;;;9.98;84.85
41078;BME280;26823;42.662;23.352;2023-02-28T10:26:11;95359.88;;;10.16;84.67
41078;BME280;26823;42.662;23.352;2023-02-28T10:28:37;95351.25;;;10.24;83.93
41078;BME280;26823;42.662;23.352;2023-02-28T10:31:04;95343.22;;;10.40;82.60
41078;BME280;26823;42.662;23.352;2023-02-28T10:33:34;95354.69;;;10.63;82.08
41078;BME280;26823;42.662;23.352;2023-02-28T10:36:01;95354.78;;;11.04;79.85
41078;BME280;26823;42.662;23.352;2023-02-28T10:38:35;95344.00;;;11.45;78.00
41078;BME280;26823;42.662;23.352;2023-02-28T10:41:10;95341.25;;;11.86;76.30
41078;BME280;26823;42.662;23.352;2023-02-28T10:43:37;95339.81;;;12.35;73.38
41078;BME280;26823;42.662;23.352;2023-02-28T10:51:03;95321.72;;;12.70;69.17
41078;BME280;26823;42.662;23.352;2023-02-28T10:53:33;95332.31;;;12.77;70.08
41078;BME280;26823;42.662;23.352;2023-02-28T10:58:51;95318.53;;;13.08;67.42
41078;BME280;26823;42.662;23.352;2023-02-28T11:01:20;95318.78;;;13.12;67.56
41078;BME280;26823;42.662;23.352;2023-02-28T11:03:47;95314.75;;;13.04;68.10
41078;BME280;26823;42.662;23.352;2023-02-28T11:06:16;95305.19;;;13.12;66.49
41078;BME280;26823;42.662;23.352;2023-02-28T11:08:45;95290.81;;;13.11;65.53
41078;BME280;26823;42.662;23.352;2023-02-28T11:11:11;95297.81;;;12.78;66.97
41078;BME280;26823;42.662;23.352;2023-02-28T11:13:37;95295.09;;;12.78;66.94
41078;BME280;26823;42.662;23.352;2023-02-28T11:16:05;95296.94;;;12.87;67.58
41078;BME280;26823;42.662;23.352;2023-02-28T11:18:48;95302.66;;;12.86;67.93
41078;BME280;26823;42.662;23.352;2023-02-28T11:23:49;95291.16;;;12.99;65.36
41078;BME280;26823;42.662;23.352;2023-02-28T11:26:16;95289.28;;;12.50;67.25
41078;BME280;26823;42.662;23.352;2023-02-28T11:29:11;95294.44;;;12.46;67.26
41078;BME280;26823;42.662;23.352;2023-02-28T11:31:36;95281.84;;;12.11;69.11
41078;BME280;26823;42.662;23.352;2023-02-28T11:34:23;95299.25;;;11.84;70.11
41078;BME280;26823;42.662;23.352;2023-02-28T11:36:49;95278.13;;;11.70;71.68
41078;BME280;26823;42.662;23.352;2023-02-28T11:39:15;95288.13;;;12.01;71.04
41078;BME280;26823;42.662;23.352;2023-02-28T11:41:58;95286.47;;;12.10;70.25
41078;BME280;26823;42.662;23.352;2023-02-28T11:52:52;95282.03;;;12.30;69.56
41078;BME280;26823;42.662;23.352;2023-02-28T12:12:21;95278.91;;;11.97;70.74
41078;BME280;26823;42.662;23.352;2023-02-28T12:20:47;95258.34;;;11.70;70.92
41078;BME280;26823;42.662;23.352;2023-02-28T12:23:39;95268.16;;;11.50;71.94
41078;BME280;26823;42.662;23.352;2023-02-28T12:28:43;95274.06;;;11.83;71.30
41078;BME280;26823;42.662;23.352;2023-02-28T12:31:18;95277.28;;;11.85;71.95
41078;BME280;26823;42.662;23.352;2023-02-28T12:33:50;95272.09;;;12.04;70.89
41078;BME280;26823;42.662;23.352;2023-02-28T12:36:18;95272.91;;;12.10;69.96
41078;BME280;26823;42.662;23.352;2023-02-28T12:41:59;95259.41;;;11.89;69.85
41078;BME280;26823;42.662;23.352;2023-02-28T12:44:33;95258.34;;;11.70;69.74
41078;BME280;26823;42.662;23.352;2023-02-28T12:47:00;95272.44;;;11.77;70.36
41078;BME280;26823;42.662;23.352;2023-02-28T12:49:38;95256.72;;;11.74;70.62
41078;BME280;26823;42.662;23.352;2023-02-28T12:52:04;95263.56;;;11.46;71.07
41078;BME280;26823;42.662;23.352;2023-02-28T13:00:02;95259.25;;;11.24;72.30
41078;BME280;26823;42.662;23.352;2023-02-28T13:02:52;95259.78;;;11.36;71.73
41078;BME280;26823;42.662;23.352;2023-02-28T13:08:53;95258.69;;;11.53;70.86
41078;BME280;26823;42.662;23.352;2023-02-28T13:11:26;95261.69;;;11.15;71.85
41078;BME280;26823;42.662;23.352;2023-02-28T13:13:59;95254.34;;;10.80;74.74
41078;BME280;26823;42.662;23.352;2023-02-28T13:16:25;95255.94;;;10.70;75.69
41078;BME280;26823;42.662;23.352;2023-02-28T13:18:51;95248.94;;;10.74;75.11
41078;BME280;26823;42.662;23.352;2023-02-28T13:21:28;95243.00;;;10.83;74.30
41078;BME280;26823;42.662;23.352;2023-02-28T13:34:39;95254.66;;;10.88;73.33
41078;BME280;26823;42.662;23.352;2023-02-28T13:39:57;95221.88;;;10.59;74.27
41078;BME280;26823;42.662;23.352;2023-02-28T13:47:30;95241.34;;;10.71;73.95
41078;BME280;26823;42.662;23.352;2023-02-28T13:55:31;95210.16;;;10.27;74.96
41078;BME280;26823;42.662;23.352;2023-02-28T13:58:09;95222.84;;;10.22;75.88
41078;BME280;26823;42.662;23.352;2023-02-28T14:06:23;95233.41;;;10.28;75.46
41078;BME280;26823;42.662;23.352;2023-02-28T14:09:00;95230.97;;;10.27;75.93
41078;BME280;26823;42.662;23.352;2023-02-28T14:11:34;95211.41;;;9.99;76.66
41078;BME280;26823;42.662;23.352;2023-02-28T14:14:00;95231.91;;;9.85;78.22
41078;BME280;26823;42.662;23.352;2023-02-28T14:16:36;95228.63;;;9.83;78.44
41078;BME280;26823;42.662;23.352;2023-02-28T14:21:47;95224.19;;;9.56;80.33
41078;BME280;26823;42.662;23.352;2023-02-28T14:27:06;95241.09;;;9.41;81.33
41078;BME280;26823;42.662;23.352;2023-02-28T14:32:59;95241.44;;;9.50;81.64
41078;BME280;26823;42.662;23.352;2023-02-28T14:35:57;95245.47;;;9.47;81.42
41078;BME280;26823;42.662;23.352;2023-02-28T14:38:32;95234.28;;;9.28;82.00
41078;BME280;26823;42.662;23.352;2023-02-28T14:41:01;95227.47;;;9.20;83.00
41078;BME280;26823;42.662;23.352;2023-02-28T14:43:28;95220.09;;;9.05;83.44
41078;BME280;26823;42.662;23.352;2023-02-28T14:45:57;95233.19;;;9.24;83.42
41078;BME280;26823;42.662;23.352;2023-02-28T14:48:24;95236.34;;;9.16;83.88
41078;BME280;26823;42.662;23.352;2023-02-28T14:50:53;95228.31;;;9.26;83.17
41078;BME280;26823;42.662;23.352;2023-02-28T14:53:21;95226.44;;;9.26;83.56
41078;BME280;26823;42.662;23.352;2023-02-28T14:55:48;95232.16;;;9.30;83.12
41078;BME280;26823;42.662;23.352;2023-02-28T14:58:26;95208.19;;;9.01;83.60
41078;BME280;26823;42.662;23.352;2023-02-28T15:00:54;95252.13;;;9.29;83.47
41078;BME280;26823;42.662;23.352;2023-02-28T15:03:23;95243.41;;;9.22;83.84
41078;BME280;26823;42.662;23.352;2023-02-28T15:05:58;95230.38;;;9.08;83.82
41078;BME280;26823;42.662;23.352;2023-02-28T15:08:24;95240.16;;;9.14;84.06
41078;BME280;26823;42.662;23.352;2023-02-28T15:13:20;95232.66;;;8.89;84.88
41078;BME280;26823;42.662;23.352;2023-02-28T15:15:58;95214.78;;;8.78;85.50
41078;BME280;26823;42.662;23.352;2023-02-28T15:18:29;95244.22;;;8.85;85.90
41078;BME280;26823;42.662;23.352;2023-02-28T15:21:03;95202.41;;;8.55;85.86
41078;BME280;26823;42.662;23.352;2023-02-28T15:23:31;95228.22;;;8.73;85.61
41078;BME280;26823;42.662;23.352;2023-02-28T15:25:58;95243.34;;;8.79;85.07
41078;BME280;26823;42.662;23.352;2023-02-28T15:28:24;95234.72;;;8.77;84.56